sensor_id;sensor_type;location;lat;lon;timestamp;temperature;humidity
67101;DHT22;54019;61.746;16.106;2023-04-24T00:00:20;20.90;27.70
67101;DHT22;54019;61.746;16.106;2023-04-24T00:02:46;20.90;27.70
67101;DHT22;54019;61.746;16.106;2023-04-24T00:05:13;20.90;27.70
67101;DHT22;54019;61.746;16.106;2023-04-24T00:07:39;20.90;27.80
67101;DHT22;54019;61.746;16.106;2023-04-24T00:10:06;20.80;27.70
67101;DHT22;54019;61.746;16.106;2023-04-24T00:12:32;20.80;27.70
67101;DHT22;54019;61.746;16.106;2023-04-24T00:14:59;20.80;27.70
67101;DHT22;54019;61.746;16.106;2023-04-24T00:17:25;20.80;27.70
67101;DHT22;54019;61.746;16.106;2023-04-24T00:19:51;20.70;27.80
67101;DHT22;54019;61.746;16.106;2023-04-24T00:22:18;20.70;28.20
67101;DHT22;54019;61.746;16.106;2023-04-24T00:24:44;20.70;28.40
67101;DHT22;54019;61.746;16.106;2023-04-24T00:27:10;20.70;28.50
67101;DHT22;54019;61.746;16.106;2023-04-24T00:29:35;20.70;28.60
67101;DHT22;54019;61.746;16.106;2023-04-24T00:32:01;20.60;28.60
67101;DHT22;54019;61.746;16.106;2023-04-24T00:34:27;20.60;28.50
67101;DHT22;54019;61.746;16.106;2023-04-24T00:36:53;20.60;28.60
67101;DHT22;54019;61.746;16.106;2023-04-24T00:39:20;20.60;28.00
67101;DHT22;54019;61.746;16.106;2023-04-24T00:41:46;20.70;27.60
67101;DHT22;54019;61.746;16.106;2023-04-24T00:44:12;20.70;27.40
67101;DHT22;54019;61.746;16.106;2023-04-24T00:46:38;20.70;27.50
67101;DHT22;54019;61.746;16.106;2023-04-24T00:49:05;20.70;27.50
67101;DHT22;54019;61.746;16.106;2023-04-24T00:51:31;20.80;27.50
67101;DHT22;54019;61.746;16.106;2023-04-24T00:53:57;20.80;27.50
67101;DHT22;54019;61.746;16.106;2023-04-24T00:56:24;20.80;27.40
67101;DHT22;54019;61.746;16.106;2023-04-24T00:58:50;20.90;27.50
67101;DHT22;54019;61.746;16.106;2023-04-24T01:01:17;20.80;27.30
67101;DHT22;54019;61.746;16.106;2023-04-24T01:03:42;20.80;27.40
67101;DHT22;54019;61.746;16.106;2023-04-24T01:06:09;20.80;27.40
67101;DHT22;54019;61.746;16.106;2023-04-24T01:08:36;20.80;27.40
67101;DHT22;54019;61.746;16.106;2023-04-24T01:11:04;20.80;27.40
67101;DHT22;54019;61.746;16.106;2023-04-24T01:13:31;20.80;27.50
67101;DHT22;54019;61.746;16.106;2023-04-24T01:15:58;20.70;27.90
67101;DHT22;54019;61.746;16.106;2023-04-24T01:18:24;20.70;28.20
67101;DHT22;54019;61.746;16.106;2023-04-24T01:20:51;20.70;28.30
67101;DHT22;54019;61.746;16.106;2023-04-24T01:23:19;20.70;28.30
67101;DHT22;54019;61.746;16.106;2023-04-24T01:25:45;20.60;28.20
67101;DHT22;54019;61.746;16.106;2023-04-24T01:28:11;20.60;28.20
67101;DHT22;54019;61.746;16.106;2023-04-24T01:30:37;20.60;28.30
67101;DHT22;54019;61.746;16.106;2023-04-24T01:33:03;20.60;28.10
67101;DHT22;54019;61.746;16.106;2023-04-24T01:35:29;20.60;27.50
67101;DHT22;54019;61.746;16.106;2023-04-24T01:37:55;20.60;27.20
67101;DHT22;54019;61.746;16.106;2023-04-24T01:40:22;20.70;27.20
67101;DHT22;54019;61.746;16.106;2023-04-24T01:42:48;20.70;27.10
67101;DHT22;54019;61.746;16.106;2023-04-24T01:45:14;20.70;27.10
67101;DHT22;54019;61.746;16.106;2023-04-24T01:47:39;20.80;27.10
67101;DHT22;54019;61.746;16.106;2023-04-24T01:50:06;20.80;27.00
67101;DHT22;54019;61.746;16.106;2023-04-24T01:52:33;20.80;27.10
67101;DHT22;54019;61.746;16.106;2023-04-24T01:55:00;20.80;27.10
67101;DHT22;54019;61.746;16.106;2023-04-24T01:57:27;20.80;27.00
67101;DHT22;54019;61.746;16.106;2023-04-24T01:59:53;20.80;27.10
67101;DHT22;54019;61.746;16.106;2023-04-24T02:02:19;20.80;27.10
67101;DHT22;54019;61.746;16.106;2023-04-24T02:04:45;20.70;27.10
67101;DHT22;54019;61.746;16.106;2023-04-24T02:07:10;20.70;27.20
67101;DHT22;54019;61.746;16.106;2023-04-24T02:09:36;20.70;27.80
67101;DHT22;54019;61.746;16.106;2023-04-24T02:12:02;20.70;27.90
67101;DHT22;54019;61.746;16.106;2023-04-24T02:14:29;20.70;28.00
67101;DHT22;54019;61.746;16.106;2023-04-24T02:16:55;20.60;27.90
67101;DHT22;54019;61.746;16.106;2023-04-24T02:19:21;20.60;27.90
67101;DHT22;54019;61.746;16.106;2023-04-24T02:21:46;20.60;27.70
67101;DHT22;54019;61.746;16.106;2023-04-24T02:24:12;20.60;27.60
67101;DHT22;54019;61.746;16.106;2023-04-24T02:26:38;20.60;27.70
67101;DHT22;54019;61.746;16.106;2023-04-24T02:29:04;20.60;27.80
67101;DHT22;54019;61.746;16.106;2023-04-24T02:31:31;20.60;27.90
67101;DHT22;54019;61.746;16.106;2023-04-24T02:33:56;20.60;27.70
67101;DHT22;54019;61.746;16.106;2023-04-24T02:36:22;20.60;27.30
67101;DHT22;54019;61.746;16.106;2023-04-24T02:38:48;20.60;27.20
67101;DHT22;54019;61.746;16.106;2023-04-24T02:41:14;20.70;26.90
67101;DHT22;54019;61.746;16.106;2023-04-24T02:43:39;20.70;26.80
67101;DHT22;54019;61.746;16.106;2023-04-24T02:46:05;20.70;26.80
67101;DHT22;54019;61.746;16.106;2023-04-24T02:48:32;20.80;26.80
67101;DHT22;54019;61.746;16.106;2023-04-24T02:50:58;20.80;26.80
67101;DHT22;54019;61.746;16.106;2023-04-24T02:53:24;20.80;26.60
67101;DHT22;54019;61.746;16.106;2023-04-24T02:55:50;20.80;26.70
67101;DHT22;54019;61.746;16.106;2023-04-24T02:58:15;20.80;26.70
67101;DHT22;54019;61.746;16.106;2023-04-24T03:00:41;20.80;26.60
67101;DHT22;54019;61.746;16.106;2023-04-24T03:03:07;20.80;26.60
67101;DHT22;54019;61.746;16.106;2023-04-24T03:05:34;20.70;26.70
67101;DHT22;54019;61.746;16.106;2023-04-24T03:08:00;20.70;26.80
67101;DHT22;54019;61.746;16.106;2023-04-24T03:10:26;20.60;26.60
67101;DHT22;54019;61.746;16.106;2023-04-24T03:12:52;20.70;26.90
67101;DHT22;54019;61.746;16.106;2023-04-24T03:15:17;20.60;26.80
67101;DHT22;54019;61.746;16.106;2023-04-24T03:17:43;20.60;27.10
67101;DHT22;54019;61.746;16.106;2023-04-24T03:20:09;20.60;27.10
67101;DHT22;54019;61.746;16.106;2023-04-24T03:22:37;20.60;27.10
67101;DHT22;54019;61.746;16.106;2023-04-24T03:25:03;20.50;26.90
67101;DHT22;54019;61.746;16.106;2023-04-24T03:27:29;20.50;26.60
67101;DHT22;54019;61.746;16.106;2023-04-24T03:29:55;20.60;26.70
67101;DHT22;54019;61.746;16.106;2023-04-24T03:32:23;20.60;26.30
67101;DHT22;54019;61.746;16.106;2023-04-24T03:34:49;20.60;26.20
67101;DHT22;54019;61.746;16.106;2023-04-24T03:37:15;20.70;26.30
67101;DHT22;54019;61.746;16.106;2023-04-24T03:39:42;20.70;26.20
67101;DHT22;54019;61.746;16.106;2023-04-24T03:42:08;20.80;26.10
67101;DHT22;54019;61.746;16.106;2023-04-24T03:44:34;20.80;26.10
67101;DHT22;54019;61.746;16.106;2023-04-24T03:47:00;20.80;26.00
67101;DHT22;54019;61.746;16.106;2023-04-24T03:49:26;20.80;26.00
67101;DHT22;54019;61.746;16.106;2023-04-24T03:51:51;20.80;26.00
67101;DHT22;54019;61.746;16.106;2023-04-24T03:54:17;20.80;26.10
67101;DHT22;54019;61.746;16.106;2023-04-24T03:56:45;20.70;26.20
67101;DHT22;54019;61.746;16.106;2023-04-24T03:59:10;20.70;26.20
67101;DHT22;54019;61.746;16.106;2023-04-24T04:01:36;20.70;26.30
67101;DHT22;54019;61.746;16.106;2023-04-24T04:04:02;20.70;26.40
67101;DHT22;54019;61.746;16.106;2023-04-24T04:06:28;20.60;26.60
67101;DHT22;54019;61.746;16.106;2023-04-24T04:08:54;20.60;27.40
67101;DHT22;54019;61.746;16.106;2023-04-24T04:11:20;20.60;27.10
67101;DHT22;54019;61.746;16.106;2023-04-24T04:13:47;20.60;27.20
67101;DHT22;54019;61.746;16.106;2023-04-24T04:16:13;20.60;27.10
67101;DHT22;54019;61.746;16.106;2023-04-24T04:18:39;20.50;27.30
67101;DHT22;54019;61.746;16.106;2023-04-24T04:21:04;20.60;26.80
67101;DHT22;54019;61.746;16.106;2023-04-24T04:23:30;20.60;26.50
67101;DHT22;54019;61.746;16.106;2023-04-24T04:25:56;20.60;26.40
67101;DHT22;54019;61.746;16.106;2023-04-24T04:28:22;20.70;26.90
67101;DHT22;54019;61.746;16.106;2023-04-24T04:30:49;20.80;26.60
67101;DHT22;54019;61.746;16.106;2023-04-24T04:33:15;20.80;26.60
67101;DHT22;54019;61.746;16.106;2023-04-24T04:35:41;20.80;26.60
67101;DHT22;54019;61.746;16.106;2023-04-24T04:38:06;20.90;26.80
67101;DHT22;54019;61.746;16.106;2023-04-24T04:40:32;20.90;26.80
67101;DHT22;54019;61.746;16.106;2023-04-24T04:42:58;20.80;26.90
67101;DHT22;54019;61.746;16.106;2023-04-24T04:45:24;20.80;27.80
67101;DHT22;54019;61.746;16.106;2023-04-24T04:47:51;20.80;27.10
67101;DHT22;54019;61.746;16.106;2023-04-24T04:50:16;20.90;27.20
67101;DHT22;54019;61.746;16.106;2023-04-24T04:52:42;20.90;27.20
67101;DHT22;54019;61.746;16.106;2023-04-24T04:55:08;20.80;27.20
67101;DHT22;54019;61.746;16.106;2023-04-24T04:57:34;20.80;27.70
67101;DHT22;54019;61.746;16.106;2023-04-24T05:00:00;20.70;27.70
67101;DHT22;54019;61.746;16.106;2023-04-24T05:02:26;20.80;27.90
67101;DHT22;54019;61.746;16.106;2023-04-24T05:04:53;20.70;27.90
67101;DHT22;54019;61.746;16.106;2023-04-24T05:07:18;20.70;27.80
67101;DHT22;54019;61.746;16.106;2023-04-24T05:09:44;20.70;27.80
67101;DHT22;54019;61.746;16.106;2023-04-24T05:12:10;20.70;27.70
67101;DHT22;54019;61.746;16.106;2023-04-24T05:14:36;20.60;27.50
67101;DHT22;54019;61.746;16.106;2023-04-24T05:17:01;20.60;27.50
67101;DHT22;54019;61.746;16.106;2023-04-24T05:19:27;20.60;27.40
67101;DHT22;54019;61.746;16.106;2023-04-24T05:21:54;20.70;27.50
67101;DHT22;54019;61.746;16.106;2023-04-24T05:24:20;20.70;26.90
67101;DHT22;54019;61.746;16.106;2023-04-24T05:26:46;20.70;26.70
67101;DHT22;54019;61.746;16.106;2023-04-24T05:29:12;20.80;26.40
67101;DHT22;54019;61.746;16.106;2023-04-24T05:31:38;20.80;26.40
67101;DHT22;54019;61.746;16.106;2023-04-24T05:34:03;20.90;26.30
67101;DHT22;54019;61.746;16.106;2023-04-24T05:36:29;20.90;26.20
67101;DHT22;54019;61.746;16.106;2023-04-24T05:38:56;21.00;26.30
67101;DHT22;54019;61.746;16.106;2023-04-24T05:41:22;21.00;26.30
67101;DHT22;54019;61.746;16.106;2023-04-24T05:43:48;21.00;26.30
67101;DHT22;54019;61.746;16.106;2023-04-24T05:46:13;21.00;26.30
67101;DHT22;54019;61.746;16.106;2023-04-24T05:48:39;21.00;26.30
67101;DHT22;54019;61.746;16.106;2023-04-24T05:51:05;20.90;26.30
67101;DHT22;54019;61.746;16.106;2023-04-24T05:53:31;20.90;26.30
67101;DHT22;54019;61.746;16.106;2023-04-24T05:55:58;20.90;26.30
67101;DHT22;54019;61.746;16.106;2023-04-24T05:58:24;20.90;26.40
67101;DHT22;54019;61.746;16.106;2023-04-24T06:00:50;20.90;26.30
67101;DHT22;54019;61.746;16.106;2023-04-24T06:03:15;20.90;26.30
67101;DHT22;54019;61.746;16.106;2023-04-24T06:05:41;20.80;26.30
67101;DHT22;54019;61.746;16.106;2023-04-24T06:08:07;20.80;26.40
67101;DHT22;54019;61.746;16.106;2023-04-24T06:10:33;20.80;26.40
67101;DHT22;54019;61.746;16.106;2023-04-24T06:13:00;20.80;26.60
67101;DHT22;54019;61.746;16.106;2023-04-24T06:15:28;20.80;26.80
67101;DHT22;54019;61.746;16.106;2023-04-24T06:17:53;20.80;26.80
67101;DHT22;54019;61.746;16.106;2023-04-24T06:20:19;20.80;27.10
67101;DHT22;54019;61.746;16.106;2023-04-24T06:22:45;20.80;27.00
67101;DHT22;54019;61.746;16.106;2023-04-24T06:25:11;20.80;27.00
67101;DHT22;54019;61.746;16.106;2023-04-24T06:27:37;20.80;26.40
67101;DHT22;54019;61.746;16.106;2023-04-24T06:30:05;20.80;26.20
67101;DHT22;54019;61.746;16.106;2023-04-24T06:32:31;20.90;26.10
67101;DHT22;54019;61.746;16.106;2023-04-24T06:34:57;20.90;26.00
67101;DHT22;54019;61.746;16.106;2023-04-24T06:37:23;21.00;26.00
67101;DHT22;54019;61.746;16.106;2023-04-24T06:39:49;21.10;26.00
67101;DHT22;54019;61.746;16.106;2023-04-24T06:42:15;21.10;26.00
67101;DHT22;54019;61.746;16.106;2023-04-24T06:44:41;21.20;25.90
67101;DHT22;54019;61.746;16.106;2023-04-24T06:47:08;21.20;25.90
67101;DHT22;54019;61.746;16.106;2023-04-24T06:49:34;21.20;25.70
67101;DHT22;54019;61.746;16.106;2023-04-24T06:52:00;21.20;25.70
67101;DHT22;54019;61.746;16.106;2023-04-24T06:54:26;21.20;25.80
67101;DHT22;54019;61.746;16.106;2023-04-24T06:56:52;21.20;25.80
67101;DHT22;54019;61.746;16.106;2023-04-24T06:59:17;21.20;25.90
67101;DHT22;54019;61.746;16.106;2023-04-24T07:01:43;21.20;25.90
67101;DHT22;54019;61.746;16.106;2023-04-24T07:04:10;21.20;25.90
67101;DHT22;54019;61.746;16.106;2023-04-24T07:06:36;21.20;25.80
67101;DHT22;54019;61.746;16.106;2023-04-24T07:09:02;21.20;25.90
67101;DHT22;54019;61.746;16.106;2023-04-24T07:11:28;21.20;26.00
67101;DHT22;54019;61.746;16.106;2023-04-24T07:13:54;21.20;25.80
67101;DHT22;54019;61.746;16.106;2023-04-24T07:16:19;21.20;26.20
67101;DHT22;54019;61.746;16.106;2023-04-24T07:18:45;21.30;26.40
67101;DHT22;54019;61.746;16.106;2023-04-24T07:21:12;21.40;26.50
67101;DHT22;54019;61.746;16.106;2023-04-24T07:23:38;21.40;26.50
67101;DHT22;54019;61.746;16.106;2023-04-24T07:26:04;21.40;26.30
67101;DHT22;54019;61.746;16.106;2023-04-24T07:28:30;21.40;26.50
67101;DHT22;54019;61.746;16.106;2023-04-24T07:30:55;21.40;26.40
67101;DHT22;54019;61.746;16.106;2023-04-24T07:33:21;21.40;26.50
67101;DHT22;54019;61.746;16.106;2023-04-24T07:35:47;21.40;26.40
67101;DHT22;54019;61.746;16.106;2023-04-24T07:38:14;21.50;26.70
67101;DHT22;54019;61.746;16.106;2023-04-24T07:40:40;21.40;26.50
67101;DHT22;54019;61.746;16.106;2023-04-24T07:43:06;21.40;26.60
67101;DHT22;54019;61.746;16.106;2023-04-24T07:45:32;21.40;26.80
67101;DHT22;54019;61.746;16.106;2023-04-24T07:47:57;21.50;26.80
67101;DHT22;54019;61.746;16.106;2023-04-24T07:50:23;21.50;26.90
67101;DHT22;54019;61.746;16.106;2023-04-24T07:52:49;21.40;27.30
67101;DHT22;54019;61.746;16.106;2023-04-24T07:55:16;21.40;26.70
67101;DHT22;54019;61.746;16.106;2023-04-24T07:57:42;21.40;26.80
67101;DHT22;54019;61.746;16.106;2023-04-24T08:00:09;21.40;26.90
67101;DHT22;54019;61.746;16.106;2023-04-24T08:02:35;21.40;27.00
67101;DHT22;54019;61.746;16.106;2023-04-24T08:05:00;21.40;27.10
67101;DHT22;54019;61.746;16.106;2023-04-24T08:07:26;21.40;27.20
67101;DHT22;54019;61.746;16.106;2023-04-24T08:09:52;21.40;27.60
67101;DHT22;54019;61.746;16.106;2023-04-24T08:12:19;21.40;27.60
67101;DHT22;54019;61.746;16.106;2023-04-24T08:14:45;21.40;27.60
67101;DHT22;54019;61.746;16.106;2023-04-24T08:17:11;21.40;27.60
67101;DHT22;54019;61.746;16.106;2023-04-24T08:19:37;21.40;27.40
67101;DHT22;54019;61.746;16.106;2023-04-24T08:22:03;21.40;27.90
67101;DHT22;54019;61.746;16.106;2023-04-24T08:24:29;21.40;26.80
67101;DHT22;54019;61.746;16.106;2023-04-24T08:26:55;21.40;26.80
67101;DHT22;54019;61.746;16.106;2023-04-24T08:29:22;21.50;27.10
67101;DHT22;54019;61.746;16.106;2023-04-24T08:31:48;21.60;26.90
67101;DHT22;54019;61.746;16.106;2023-04-24T08:34:14;21.60;27.10
67101;DHT22;54019;61.746;16.106;2023-04-24T08:36:39;21.70;27.20
67101;DHT22;54019;61.746;16.106;2023-04-24T08:39:05;21.70;27.10
67101;DHT22;54019;61.746;16.106;2023-04-24T08:41:31;21.80;27.20
67101;DHT22;54019;61.746;16.106;2023-04-24T08:43:58;21.80;27.20
67101;DHT22;54019;61.746;16.106;2023-04-24T08:46:26;21.70;27.10
67101;DHT22;54019;61.746;16.106;2023-04-24T08:48:52;21.60;26.90
67101;DHT22;54019;61.746;16.106;2023-04-24T08:51:18;21.60;26.90
67101;DHT22;54019;61.746;16.106;2023-04-24T08:53:45;21.50;26.80
67101;DHT22;54019;61.746;16.106;2023-04-24T08:56:11;21.50;26.70
67101;DHT22;54019;61.746;16.106;2023-04-24T08:58:38;21.50;26.80
67101;DHT22;54019;61.746;16.106;2023-04-24T09:01:04;21.40;27.00
67101;DHT22;54019;61.746;16.106;2023-04-24T09:03:33;21.40;27.30
67101;DHT22;54019;61.746;16.106;2023-04-24T09:05:59;21.40;27.10
67101;DHT22;54019;61.746;16.106;2023-04-24T09:08:26;21.40;27.10
67101;DHT22;54019;61.746;16.106;2023-04-24T09:10:53;21.40;27.10
67101;DHT22;54019;61.746;16.106;2023-04-24T09:13:20;21.40;27.30
67101;DHT22;54019;61.746;16.106;2023-04-24T09:15:46;21.40;27.00
67101;DHT22;54019;61.746;16.106;2023-04-24T09:18:12;21.40;27.10
67101;DHT22;54019;61.746;16.106;2023-04-24T09:21:00;21.40;27.40
67101;DHT22;54019;61.746;16.106;2023-04-24T09:23:27;21.40;27.60
67101;DHT22;54019;61.746;16.106;2023-04-24T09:25:55;21.40;27.40
67101;DHT22;54019;61.746;16.106;2023-04-24T09:28:25;21.40;27.50
67101;DHT22;54019;61.746;16.106;2023-04-24T09:31:03;21.40;27.50
67101;DHT22;54019;61.746;16.106;2023-04-24T09:33:29;21.40;27.40
67101;DHT22;54019;61.746;16.106;2023-04-24T09:35:55;21.30;27.40
67101;DHT22;54019;61.746;16.106;2023-04-24T09:38:31;21.30;27.40
67101;DHT22;54019;61.746;16.106;2023-04-24T09:40:59;21.30;27.40
67101;DHT22;54019;61.746;16.106;2023-04-24T09:43:26;21.30;27.40
67101;DHT22;54019;61.746;16.106;2023-04-24T09:45:55;21.20;27.20
67101;DHT22;54019;61.746;16.106;2023-04-24T09:48:30;21.20;27.50
67101;DHT22;54019;61.746;16.106;2023-04-24T09:50:56;21.30;27.70
67101;DHT22;54019;61.746;16.106;2023-04-24T09:53:25;21.20;28.00
67101;DHT22;54019;61.746;16.106;2023-04-24T09:55:51;21.20;27.60
67101;DHT22;54019;61.746;16.106;2023-04-24T09:58:17;21.30;28.20
67101;DHT22;54019;61.746;16.106;2023-04-24T10:00:43;21.30;28.20
67101;DHT22;54019;61.746;16.106;2023-04-24T10:03:11;21.30;28.30
67101;DHT22;54019;61.746;16.106;2023-04-24T10:05:37;21.40;28.40
67101;DHT22;54019;61.746;16.106;2023-04-24T10:08:06;21.30;28.40
67101;DHT22;54019;61.746;16.106;2023-04-24T10:10:34;21.40;28.20
67101;DHT22;54019;61.746;16.106;2023-04-24T10:13:01;21.40;28.50
67101;DHT22;54019;61.746;16.106;2023-04-24T10:15:27;21.40;28.20
67101;DHT22;54019;61.746;16.106;2023-04-24T10:17:53;21.30;28.10
67101;DHT22;54019;61.746;16.106;2023-04-24T10:20:20;21.30;28.00
67101;DHT22;54019;61.746;16.106;2023-04-24T10:22:48;21.30;28.00
67101;DHT22;54019;61.746;16.106;2023-04-24T10:25:14;21.30;28.00
67101;DHT22;54019;61.746;16.106;2023-04-24T10:27:43;21.30;27.80
67101;DHT22;54019;61.746;16.106;2023-04-24T10:30:12;21.30;27.70
67101;DHT22;54019;61.746;16.106;2023-04-24T10:32:38;21.30;27.70
67101;DHT22;54019;61.746;16.106;2023-04-24T10:35:06;21.40;27.50
67101;DHT22;54019;61.746;16.106;2023-04-24T10:37:36;21.40;27.40
67101;DHT22;54019;61.746;16.106;2023-04-24T10:40:03;21.40;27.60
67101;DHT22;54019;61.746;16.106;2023-04-24T10:42:29;21.40;27.40
67101;DHT22;54019;61.746;16.106;2023-04-24T10:44:56;21.40;27.90
67101;DHT22;54019;61.746;16.106;2023-04-24T10:47:22;21.50;28.50
67101;DHT22;54019;61.746;16.106;2023-04-24T10:49:50;21.60;28.50
67101;DHT22;54019;61.746;16.106;2023-04-24T10:52:16;21.60;28.50
67101;DHT22;54019;61.746;16.106;2023-04-24T10:54:44;21.60;28.40
67101;DHT22;54019;61.746;16.106;2023-04-24T10:57:26;21.50;28.70
67101;DHT22;54019;61.746;16.106;2023-04-24T11:00:18;21.50;28.50
67101;DHT22;54019;61.746;16.106;2023-04-24T11:02:46;21.50;28.20
67101;DHT22;54019;61.746;16.106;2023-04-24T11:05:14;21.50;28.30
67101;DHT22;54019;61.746;16.106;2023-04-24T11:08:10;21.50;28.30
67101;DHT22;54019;61.746;16.106;2023-04-24T11:10:38;21.50;28.20
67101;DHT22;54019;61.746;16.106;2023-04-24T11:13:04;21.50;28.10
67101;DHT22;54019;61.746;16.106;2023-04-24T11:15:31;21.40;28.30
67101;DHT22;54019;61.746;16.106;2023-04-24T11:17:57;21.40;28.70
67101;DHT22;54019;61.746;16.106;2023-04-24T11:20:23;21.40;29.00
67101;DHT22;54019;61.746;16.106;2023-04-24T11:22:53;21.40;28.90
67101;DHT22;54019;61.746;16.106;2023-04-24T11:25:19;21.50;28.80
67101;DHT22;54019;61.746;16.106;2023-04-24T11:27:46;21.50;28.90
67101;DHT22;54019;61.746;16.106;2023-04-24T11:30:17;21.40;28.90
67101;DHT22;54019;61.746;16.106;2023-04-24T11:32:48;21.40;28.80
67101;DHT22;54019;61.746;16.106;2023-04-24T11:35:15;21.40;28.80
67101;DHT22;54019;61.746;16.106;2023-04-24T11:37:43;21.40;28.60
67101;DHT22;54019;61.746;16.106;2023-04-24T11:40:10;21.30;28.40
67101;DHT22;54019;61.746;16.106;2023-04-24T11:42:37;21.30;29.00
67101;DHT22;54019;61.746;16.106;2023-04-24T11:45:08;21.30;28.30
67101;DHT22;54019;61.746;16.106;2023-04-24T11:47:34;21.30;28.10
67101;DHT22;54019;61.746;16.106;2023-04-24T11:50:02;21.20;28.00
67101;DHT22;54019;61.746;16.106;2023-04-24T11:52:29;21.30;28.00
67101;DHT22;54019;61.746;16.106;2023-04-24T11:54:55;21.20;28.00
67101;DHT22;54019;61.746;16.106;2023-04-24T11:57:21;21.20;28.10
67101;DHT22;54019;61.746;16.106;2023-04-24T11:59:47;21.20;28.20
67101;DHT22;54019;61.746;16.106;2023-04-24T12:02:20;21.20;28.20
67101;DHT22;54019;61.746;16.106;2023-04-24T12:04:46;21.30;28.20
67101;DHT22;54019;61.746;16.106;2023-04-24T12:07:14;21.20;28.30
67101;DHT22;54019;61.746;16.106;2023-04-24T12:09:44;21.20;28.70
67101;DHT22;54019;61.746;16.106;2023-04-24T12:12:11;21.20;29.30
67101;DHT22;54019;61.746;16.106;2023-04-24T12:14:58;21.20;28.90
67101;DHT22;54019;61.746;16.106;2023-04-24T12:17:26;21.20;28.90
67101;DHT22;54019;61.746;16.106;2023-04-24T12:19:52;21.20;28.70
67101;DHT22;54019;61.746;16.106;2023-04-24T12:22:19;21.20;29.10
67101;DHT22;54019;61.746;16.106;2023-04-24T12:25:03;21.20;29.40
67101;DHT22;54019;61.746;16.106;2023-04-24T12:27:30;21.20;29.00
67101;DHT22;54019;61.746;16.106;2023-04-24T12:29:57;21.20;29.10
67101;DHT22;54019;61.746;16.106;2023-04-24T12:32:23;21.20;29.10
67101;DHT22;54019;61.746;16.106;2023-04-24T12:34:50;21.20;29.10
67101;DHT22;54019;61.746;16.106;2023-04-24T12:37:15;21.30;29.20
67101;DHT22;54019;61.746;16.106;2023-04-24T12:40:01;21.20;29.10
67101;DHT22;54019;61.746;16.106;2023-04-24T12:42:28;21.30;29.10
67101;DHT22;54019;61.746;16.106;2023-04-24T12:44:57;21.20;29.00
67101;DHT22;54019;61.746;16.106;2023-04-24T12:47:23;21.20;29.00
67101;DHT22;54019;61.746;16.106;2023-04-24T12:49:49;21.20;28.80
67101;DHT22;54019;61.746;16.106;2023-04-24T12:52:15;21.20;28.90
67101;DHT22;54019;61.746;16.106;2023-04-24T12:54:40;21.20;28.90
67101;DHT22;54019;61.746;16.106;2023-04-24T12:57:07;21.20;28.80
67101;DHT22;54019;61.746;16.106;2023-04-24T12:59:33;21.20;28.80
67101;DHT22;54019;61.746;16.106;2023-04-24T13:01:59;21.30;29.00
67101;DHT22;54019;61.746;16.106;2023-04-24T13:04:25;21.20;29.00
67101;DHT22;54019;61.746;16.106;2023-04-24T13:06:51;21.20;29.00
67101;DHT22;54019;61.746;16.106;2023-04-24T13:09:16;21.20;28.40
67101;DHT22;54019;61.746;16.106;2023-04-24T13:11:42;21.30;28.40
67101;DHT22;54019;61.746;16.106;2023-04-24T13:14:09;21.40;28.40
67101;DHT22;54019;61.746;16.106;2023-04-24T13:16:35;21.40;28.10
67101;DHT22;54019;61.746;16.106;2023-04-24T13:19:01;21.40;28.10
67101;DHT22;54019;61.746;16.106;2023-04-24T13:21:27;21.50;27.90
67101;DHT22;54019;61.746;16.106;2023-04-24T13:23:52;21.50;28.10
67101;DHT22;54019;61.746;16.106;2023-04-24T13:26:18;21.50;28.10
67101;DHT22;54019;61.746;16.106;2023-04-24T13:28:44;21.50;28.00
67101;DHT22;54019;61.746;16.106;2023-04-24T13:31:11;21.40;28.40
67101;DHT22;54019;61.746;16.106;2023-04-24T13:33:37;21.50;27.70
67101;DHT22;54019;61.746;16.106;2023-04-24T13:36:03;21.40;27.80
67101;DHT22;54019;61.746;16.106;2023-04-24T13:38:29;21.40;27.90
67101;DHT22;54019;61.746;16.106;2023-04-24T13:40:54;21.40;27.90
67101;DHT22;54019;61.746;16.106;2023-04-24T13:43:20;21.40;28.10
67101;DHT22;54019;61.746;16.106;2023-04-24T13:45:46;21.40;28.10
67101;DHT22;54019;61.746;16.106;2023-04-24T13:48:13;21.40;28.40
67101;DHT22;54019;61.746;16.106;2023-04-24T13:50:39;21.40;28.20
67101;DHT22;54019;61.746;16.106;2023-04-24T13:53:05;21.30;28.20
67101;DHT22;54019;61.746;16.106;2023-04-24T13:55:30;21.30;28.40
67101;DHT22;54019;61.746;16.106;2023-04-24T13:57:56;21.30;28.40
67101;DHT22;54019;61.746;16.106;2023-04-24T14:00:22;21.30;28.50
67101;DHT22;54019;61.746;16.106;2023-04-24T14:02:48;21.30;28.50
67101;DHT22;54019;61.746;16.106;2023-04-24T14:05:15;21.40;28.70
67101;DHT22;54019;61.746;16.106;2023-04-24T14:07:41;21.30;28.50
67101;DHT22;54019;61.746;16.106;2023-04-24T14:10:07;21.30;28.30
67101;DHT22;54019;61.746;16.106;2023-04-24T14:12:33;21.30;28.60
67101;DHT22;54019;61.746;16.106;2023-04-24T14:14:59;21.30;28.70
67101;DHT22;54019;61.746;16.106;2023-04-24T14:17:25;21.30;28.60
67101;DHT22;54019;61.746;16.106;2023-04-24T14:19:51;21.30;28.90
67101;DHT22;54019;61.746;16.106;2023-04-24T14:22:18;21.30;28.50
67101;DHT22;54019;61.746;16.106;2023-04-24T14:24:43;21.30;28.60
67101;DHT22;54019;61.746;16.106;2023-04-24T14:27:09;21.20;28.30
67101;DHT22;54019;61.746;16.106;2023-04-24T14:29:35;21.20;28.40
67101;DHT22;54019;61.746;16.106;2023-04-24T14:32:01;21.20;28.50
67101;DHT22;54019;61.746;16.106;2023-04-24T14:34:26;21.20;28.50
67101;DHT22;54019;61.746;16.106;2023-04-24T14:36:53;21.20;28.50
67101;DHT22;54019;61.746;16.106;2023-04-24T14:39:20;21.20;28.60
67101;DHT22;54019;61.746;16.106;2023-04-24T14:41:46;21.10;28.50
67101;DHT22;54019;61.746;16.106;2023-04-24T14:44:11;21.20;28.30
67101;DHT22;54019;61.746;16.106;2023-04-24T14:46:37;21.30;28.10
67101;DHT22;54019;61.746;16.106;2023-04-24T14:49:03;21.20;27.90
67101;DHT22;54019;61.746;16.106;2023-04-24T14:51:29;21.30;28.00
67101;DHT22;54019;61.746;16.106;2023-04-24T14:53:56;21.40;28.10
67101;DHT22;54019;61.746;16.106;2023-04-24T14:56:23;21.30;28.00
67101;DHT22;54019;61.746;16.106;2023-04-24T14:58:49;21.30;28.60
67101;DHT22;54019;61.746;16.106;2023-04-24T15:01:15;21.30;28.70
67101;DHT22;54019;61.746;16.106;2023-04-24T15:03:40;21.20;27.80
67101;DHT22;54019;61.746;16.106;2023-04-24T15:06:06;21.30;27.70
67101;DHT22;54019;61.746;16.106;2023-04-24T15:08:32;21.30;29.50
67101;DHT22;54019;61.746;16.106;2023-04-24T15:10:58;21.30;30.00